createdAt,value
2023-05-21T00:02:19.094Z,101502.40
2023-05-21T00:04:48.891Z,101502.00
2023-05-21T00:07:17.588Z,101500.40
2023-05-21T00:09:46.354Z,101502.40
2023-05-21T00:12:15.305Z,101503.80
2023-05-21T00:14:43.998Z,101499.40
2023-05-21T00:17:12.883Z,101496.80
2023-05-21T00:19:42.134Z,101494.00
2023-05-21T00:22:11.281Z,101490.20
2023-05-21T00:24:40.064Z,101492.80
2023-05-21T00:27:08.818Z,101487.40
2023-05-21T00:29:37.756Z,101490.20
2023-05-21T00:32:07.479Z,101486.40
2023-05-21T00:34:37.670Z,101483.20
2023-05-21T00:37:06.577Z,101482.40
2023-05-21T00:39:35.347Z,101486.40
2023-05-21T00:42:04.453Z,101483.20
2023-05-21T00:44:36.515Z,101484.20
2023-05-21T00:47:06.913Z,101479.00
2023-05-21T00:49:35.790Z,101478.00
2023-05-21T00:52:05.822Z,101474.80
2023-05-21T00:54:34.700Z,101477.20
2023-05-21T00:57:04.707Z,101476.20
2023-05-21T00:59:34.354Z,101476.60
2023-05-21T01:02:05.783Z,101469.40
2023-05-21T01:04:34.817Z,101467.80
2023-05-21T01:07:03.792Z,101469.40
2023-05-21T01:09:32.895Z,101466.60
2023-05-21T01:12:03.634Z,101465.60
2023-05-21T01:14:33.252Z,101460.80
2023-05-21T01:17:03.390Z,101460.80
2023-05-21T01:19:33.033Z,101456.20
2023-05-21T01:22:07.240Z,101453.80
2023-05-21T01:24:36.999Z,101449.40
2023-05-21T01:27:07.963Z,101446.20
2023-05-21T01:29:36.816Z,101440.60
2023-05-21T01:32:34.507Z,101443.00
2023-05-21T01:35:10.788Z,101440.40
2023-05-21T01:38:29.422Z,101442.60
2023-05-21T01:41:11.010Z,101434.20
2023-05-21T01:43:44.320Z,101436.60
2023-05-21T01:46:20.149Z,101438.60
2023-05-21T01:48:50.941Z,101436.60
2023-05-21T01:51:20.096Z,101436.00
2023-05-21T01:53:48.999Z,101435.60
2023-05-21T01:56:17.781Z,101431.00
2023-05-21T01:58:46.785Z,101428.00
2023-05-21T02:01:15.589Z,101427.40
2023-05-21T02:03:44.801Z,101436.20
2023-05-21T02:06:14.367Z,101431.40
2023-05-21T02:08:43.171Z,101428.20
2023-05-21T02:11:12.056Z,101434.20
2023-05-21T02:13:43.103Z,101435.40
2023-05-21T02:16:16.144Z,101433.00
2023-05-21T02:18:45.014Z,101438.00
2023-05-21T02:21:13.990Z,101435.40
2023-05-21T02:23:43.073Z,101436.20
2023-05-21T02:26:11.757Z,101435.00
2023-05-21T02:28:40.958Z,101441.00
2023-05-21T02:31:10.141Z,101440.20
2023-05-21T02:33:42.203Z,101441.60
2023-05-21T02:36:13.563Z,101441.60
2023-05-21T02:38:45.819Z,101443.20
2023-05-21T02:41:14.597Z,101436.00
2023-05-21T02:43:43.542Z,101433.00
2023-05-21T02:46:12.856Z,101436.00
2023-05-21T02:48:41.941Z,101440.20
2023-05-21T02:51:11.121Z,101435.60
2023-05-21T02:53:39.920Z,101434.20
2023-05-21T02:56:08.797Z,101428.40
2023-05-21T02:58:37.663Z,101427.40
2023-05-21T03:01:07.034Z,101427.00
2023-05-21T03:03:35.956Z,101425.40
2023-05-21T03:06:05.387Z,101429.60
2023-05-21T03:08:34.189Z,101425.40
2023-05-21T03:11:03.278Z,101427.40
2023-05-21T03:13:32.212Z,101423.00
2023-05-21T03:16:01.976Z,101412.60
2023-05-21T03:18:33.846Z,101416.20
2023-05-21T03:21:02.935Z,101413.80
2023-05-21T03:23:32.353Z,101409.00
2023-05-21T03:26:02.789Z,101413.20
2023-05-21T03:28:32.027Z,101414.60
2023-05-21T03:31:01.178Z,101414.20
2023-05-21T03:33:50.335Z,101409.20
2023-05-21T03:36:23.119Z,101409.20
2023-05-21T03:38:52.236Z,101405.20
2023-05-21T03:41:21.615Z,101407.80
2023-05-21T03:43:53.889Z,101407.80
2023-05-21T03:46:24.277Z,101412.60
2023-05-21T03:49:16.102Z,101415.40
2023-05-21T03:51:45.295Z,101414.60
2023-05-21T03:54:16.453Z,101415.40
2023-05-21T03:56:45.707Z,101416.20
2023-05-21T03:59:14.638Z,101418.20
2023-05-21T04:01:44.082Z,101413.80
2023-05-21T04:04:14.404Z,101412.80
2023-05-21T04:06:43.199Z,101410.40
2023-05-21T04:09:12.768Z,101415.60
2023-05-21T04:11:41.710Z,101413.60
2023-05-21T04:14:12.332Z,101414.40
2023-05-21T04:16:44.404Z,101412.20
2023-05-21T04:19:13.167Z,101416.40
2023-05-21T04:21:42.386Z,101413.20
2023-05-21T04:24:12.398Z,101416.80
2023-05-21T04:26:50.695Z,101415.20
2023-05-21T04:29:21.479Z,101413.60
2023-05-21T04:31:51.525Z,101415.80
2023-05-21T04:34:20.592Z,101411.20
2023-05-21T04:36:50.272Z,101412.00
2023-05-21T04:39:19.074Z,101411.40
2023-05-21T04:41:48.780Z,101410.60
2023-05-21T04:44:17.572Z,101407.20
2023-05-21T04:46:47.194Z,101404.20
2023-05-21T04:49:16.093Z,101399.80
2023-05-21T04:51:45.783Z,101400.60
2023-05-21T04:54:14.469Z,101396.80
2023-05-21T04:56:44.178Z,101394.20
2023-05-21T04:59:12.997Z,101392.60
2023-05-21T05:01:44.210Z,101393.40
2023-05-21T05:04:12.996Z,101393.20
2023-05-21T05:06:41.915Z,101394.60
2023-05-21T05:09:11.355Z,101390.00
2023-05-21T05:11:40.200Z,101385.80
2023-05-21T05:14:09.105Z,101387.00
2023-05-21T05:16:38.638Z,101385.60
2023-05-21T05:19:07.448Z,101377.60
2023-05-21T05:21:36.415Z,101378.00
2023-05-21T05:24:07.307Z,101380.00
2023-05-21T05:26:36.837Z,101371.40
2023-05-21T05:29:05.562Z,101370.20
2023-05-21T05:31:34.786Z,101368.40
2023-05-21T05:34:03.971Z,101373.20
2023-05-21T05:36:32.787Z,101371.20
2023-05-21T05:39:01.799Z,101367.60
2023-05-21T05:41:30.775Z,101369.60
2023-05-21T05:43:59.676Z,101366.80
2023-05-21T05:46:30.427Z,101368.60
2023-05-21T05:48:59.715Z,101365.20
2023-05-21T05:51:28.827Z,101361.80
2023-05-21T05:53:57.716Z,101358.60
2023-05-21T05:56:27.407Z,101362.80
2023-05-21T05:58:56.392Z,101360.20
2023-05-21T06:01:26.520Z,101353.60
2023-05-21T06:03:55.221Z,101350.20
2023-05-21T06:06:24.807Z,101343.80
2023-05-21T06:08:53.877Z,101349.00
2023-05-21T06:11:23.207Z,101351.80
2023-05-21T06:13:51.999Z,101345.40
2023-05-21T06:16:20.730Z,101339.20
2023-05-21T06:18:49.470Z,101338.20
2023-05-21T06:21:18.371Z,101337.20
2023-05-21T06:23:47.363Z,101335.40
2023-05-21T06:26:19.420Z,101337.60
2023-05-21T06:28:48.723Z,101335.00
2023-05-21T06:31:17.928Z,101335.40
2023-05-21T06:33:46.907Z,101337.80
2023-05-21T06:36:20.496Z,101346.40
2023-05-21T06:38:49.618Z,101347.60
2023-05-21T06:41:18.407Z,101348.40
2023-05-21T06:43:53.545Z,101351.60
2023-05-21T06:46:41.033Z,101350.20
2023-05-21T06:49:14.445Z,101351.00
2023-05-21T06:51:44.394Z,101356.40
2023-05-21T06:54:14.506Z,101361.60
2023-05-21T06:56:43.623Z,101361.20
2023-05-21T06:59:12.664Z,101360.80
2023-05-21T07:01:42.979Z,101366.00
2023-05-21T07:04:12.224Z,101361.00
2023-05-21T07:06:41.829Z,101363.60
2023-05-21T07:09:11.346Z,101361.60
2023-05-21T07:11:40.668Z,101362.20
2023-05-21T07:14:10.579Z,101360.60
2023-05-21T07:16:39.974Z,101357.80
2023-05-21T07:19:09.743Z,101358.40
2023-05-21T07:21:39.080Z,101360.40
2023-05-21T07:24:09.007Z,101358.40
2023-05-21T07:26:40.955Z,101361.60
2023-05-21T07:29:10.454Z,101362.60
2023-05-21T07:31:39.805Z,101367.60
2023-05-21T07:34:08.952Z,101365.60
2023-05-21T07:36:37.851Z,101366.80
2023-05-21T07:39:07.049Z,101370.80
2023-05-21T07:41:36.552Z,101368.40
2023-05-21T07:44:08.498Z,101365.60
2023-05-21T07:46:41.631Z,101371.80
2023-05-21T07:49:16.971Z,101374.00
2023-05-21T07:51:47.584Z,101373.80
2023-05-21T07:54:17.295Z,101375.80
2023-05-21T07:56:47.111Z,101376.40
2023-05-21T07:59:27.774Z,101379.80
2023-05-21T08:01:57.466Z,101378.60
2023-05-21T08:04:26.793Z,101377.20
2023-05-21T08:06:55.690Z,101379.20
2023-05-21T08:09:24.575Z,101377.20
2023-05-21T08:11:53.462Z,101375.00
2023-05-21T08:14:22.773Z,101370.20
2023-05-21T08:16:52.223Z,101369.00
2023-05-21T08:19:21.503Z,101372.40
2023-05-21T08:21:52.761Z,101366.80
2023-05-21T08:24:24.678Z,101374.00
2023-05-21T08:26:53.471Z,101363.60
2023-05-21T08:29:22.160Z,101368.20
2023-05-21T08:31:51.273Z,101371.60
2023-05-21T08:34:20.247Z,101372.60
2023-05-21T08:36:56.306Z,101377.40
2023-05-21T08:39:45.065Z,101372.00
2023-05-21T08:42:39.866Z,101373.40
2023-05-21T08:45:13.564Z,101370.80
2023-05-21T08:47:44.585Z,101368.00
2023-05-21T08:50:21.205Z,101369.00
2023-05-21T08:52:52.130Z,101370.80
2023-05-21T08:55:21.846Z,101375.80
2023-05-21T08:57:51.239Z,101372.60
2023-05-21T09:00:24.634Z,101376.40
2023-05-21T09:02:57.189Z,101380.40
2023-05-21T09:05:27.744Z,101376.80
2023-05-21T09:08:07.020Z,101380.80
2023-05-21T09:10:52.712Z,101383.80
2023-05-21T09:13:26.809Z,101378.40
2023-05-21T09:15:56.133Z,101382.20
2023-05-21T09:18:27.938Z,101380.00
2023-05-21T09:21:31.746Z,101369.40
2023-05-21T09:24:04.525Z,101374.60
2023-05-21T09:26:33.212Z,101369.20
2023-05-21T09:29:04.668Z,101376.00
2023-05-21T09:31:33.623Z,101370.60
2023-05-21T09:34:03.176Z,101376.20
2023-05-21T09:36:38.794Z,101380.00
2023-05-21T09:39:07.712Z,101378.40
2023-05-21T09:41:38.362Z,101388.20
2023-05-21T09:44:07.138Z,101375.20
2023-05-21T09:46:43.212Z,101383.20
2023-05-21T09:49:32.336Z,101379.80
2023-05-21T09:52:02.374Z,101379.60
2023-05-21T09:54:35.779Z,101378.40
2023-05-21T09:57:04.967Z,101377.60
2023-05-21T09:59:41.678Z,101381.40
2023-05-21T10:02:24.818Z,101376.60
2023-05-21T10:04:57.453Z,101386.00
2023-05-21T10:07:27.506Z,101382.40
2023-05-21T10:09:58.232Z,101379.40
2023-05-21T10:12:30.408Z,101380.60
2023-05-21T10:15:04.603Z,101382.00
2023-05-21T10:17:34.072Z,101377.20
2023-05-21T10:20:03.738Z,101373.00
2023-05-21T10:22:33.126Z,101370.80
2023-05-21T10:25:04.351Z,101372.60
2023-05-21T10:27:34.846Z,101360.20
2023-05-21T10:30:07.301Z,101361.80
2023-05-21T10:32:36.673Z,101354.00
2023-05-21T10:35:08.684Z,101347.20
2023-05-21T10:37:38.957Z,101353.20
2023-05-21T10:40:08.782Z,101348.80
2023-05-21T10:43:08.473Z,101343.00
2023-05-21T10:46:26.728Z,101336.20
2023-05-21T10:49:34.737Z,101343.20
2023-05-21T10:52:51.038Z,101338.00
2023-05-21T10:55:44.914Z,101334.60
2023-05-21T10:58:37.872Z,101326.60
2023-05-21T11:01:07.978Z,101323.20
2023-05-21T11:03:38.218Z,101322.40
2023-05-21T11:06:07.212Z,101314.40
2023-05-21T11:08:37.747Z,101316.80
2023-05-21T11:11:06.435Z,101315.40
2023-05-21T11:13:49.554Z,101312.80
2023-05-21T11:16:22.280Z,101313.20
2023-05-21T11:18:51.072Z,101320.40
2023-05-21T11:21:25.881Z,101319.20
2023-05-21T11:23:59.463Z,101322.80
2023-05-21T11:26:50.470Z,101320.40
2023-05-21T11:29:20.354Z,101313.20
2023-05-21T11:32:03.371Z,101326.80
2023-05-21T11:34:46.636Z,101320.40
2023-05-21T11:37:18.431Z,101333.00
2023-05-21T11:39:48.625Z,101323.60
2023-05-21T11:42:39.723Z,101324.20
2023-05-21T11:45:09.499Z,101332.20
2023-05-21T11:47:40.605Z,101323.80
2023-05-21T11:50:14.799Z,101322.00
2023-05-21T11:52:44.492Z,101315.20
2023-05-21T11:55:16.002Z,101318.80
2023-05-21T11:57:45.644Z,101308.20
2023-05-21T12:00:16.582Z,101310.00
2023-05-21T12:02:52.937Z,101317.00
2023-05-21T12:05:22.812Z,101311.60
2023-05-21T12:07:52.180Z,101315.80
2023-05-21T12:10:24.841Z,101315.60
2023-05-21T12:12:56.918Z,101315.20
2023-05-21T12:15:28.072Z,101308.20
2023-05-21T12:17:58.150Z,101304.00
2023-05-21T12:20:28.601Z,101312.80
2023-05-21T12:22:59.245Z,101319.80
2023-05-21T12:25:30.091Z,101314.80
2023-05-21T12:28:01.769Z,101310.80
2023-05-21T12:30:30.532Z,101321.40
2023-05-21T12:33:00.117Z,101320.00
2023-05-21T12:35:30.717Z,101314.80
2023-05-21T12:38:03.120Z,101307.60
2023-05-21T12:40:39.592Z,101310.00
2023-05-21T12:43:09.145Z,101309.60
2023-05-21T12:45:39.910Z,101312.40
2023-05-21T12:48:09.213Z,101313.40
2023-05-21T12:50:41.198Z,101308.80
2023-05-21T12:53:11.915Z,101314.20
2023-05-21T12:55:40.945Z,101304.00
2023-05-21T12:58:14.554Z,101311.20
2023-05-21T13:00:44.346Z,101306.00
2023-05-21T13:03:14.614Z,101305.80
2023-05-21T13:05:43.415Z,101308.40
2023-05-21T13:08:14.504Z,101305.20
2023-05-21T13:10:43.331Z,101303.80
2023-05-21T13:13:12.020Z,101295.80
2023-05-21T13:15:40.743Z,101299.80
2023-05-21T13:18:09.871Z,101294.00
2023-05-21T13:20:39.092Z,101287.80
2023-05-21T13:23:10.556Z,101290.60
2023-05-21T13:25:40.373Z,101299.20
2023-05-21T13:28:10.796Z,101292.00
2023-05-21T13:30:39.837Z,101296.00
2023-05-21T13:33:08.762Z,101293.40
2023-05-21T13:35:38.293Z,101290.40
2023-05-21T13:38:06.983Z,101286.80
2023-05-21T13:40:38.755Z,101290.60
2023-05-21T13:43:07.843Z,101289.00
2023-05-21T13:45:36.624Z,101288.60
2023-05-21T13:48:06.713Z,101291.60
2023-05-21T13:50:35.581Z,101287.20
2023-05-21T13:53:04.533Z,101283.20
2023-05-21T13:55:33.320Z,101283.00
2023-05-21T13:58:02.003Z,101280.20
2023-05-21T14:00:31.159Z,101272.60
2023-05-21T14:02:59.982Z,101270.80
2023-05-21T14:05:28.889Z,101272.80
2023-05-21T14:07:57.672Z,101275.40
2023-05-21T14:10:26.768Z,101281.20
2023-05-21T14:13:01.651Z,101268.20
2023-05-21T14:15:37.336Z,101269.80
2023-05-21T14:18:10.504Z,101267.80
2023-05-21T14:20:39.485Z,101258.40
2023-05-21T14:23:09.777Z,101267.80
2023-05-21T14:25:38.761Z,101263.40
2023-05-21T14:28:07.748Z,101264.40
2023-05-21T14:30:36.643Z,101270.20
2023-05-21T14:33:05.588Z,101268.60
2023-05-21T14:35:34.746Z,101268.60
2023-05-21T14:38:03.633Z,101268.40
2023-05-21T14:40:32.517Z,101267.60
2023-05-21T14:43:01.713Z,101271.80
2023-05-21T14:45:30.511Z,101270.20
2023-05-21T14:47:59.231Z,101279.40
2023-05-21T14:50:28.386Z,101273.20
2023-05-21T14:52:57.126Z,101284.80
2023-05-21T14:55:27.196Z,101282.40
2023-05-21T14:57:56.291Z,101290.80
2023-05-21T15:00:25.185Z,101285.00
2023-05-21T15:02:56.521Z,101283.60
2023-05-21T15:05:28.257Z,101281.40
2023-05-21T15:07:58.307Z,101291.00
2023-05-21T15:10:28.591Z,101285.20
2023-05-21T15:12:57.222Z,101286.80
2023-05-21T15:15:26.105Z,101283.00
2023-05-21T15:17:54.944Z,101280.80
2023-05-21T15:20:24.237Z,101276.20
2023-05-21T15:22:59.119Z,101280.20
2023-05-21T15:25:37.612Z,101276.60
2023-05-21T15:28:06.649Z,101273.60
2023-05-21T15:30:35.429Z,101269.80
2023-05-21T15:33:04.221Z,101272.80
2023-05-21T15:35:33.072Z,101266.60
2023-05-21T15:38:02.239Z,101258.80
2023-05-21T15:40:32.704Z,101258.40
2023-05-21T15:43:01.499Z,101249.80
2023-05-21T15:45:30.420Z,101256.40
2023-05-21T15:47:59.227Z,101255.60
2023-05-21T15:50:28.127Z,101256.00
2023-05-21T15:52:56.936Z,101254.80
2023-05-21T15:55:25.688Z,101249.80
2023-05-21T15:57:54.788Z,101255.40
2023-05-21T16:00:23.468Z,101256.40
2023-05-21T16:02:52.155Z,101258.00
2023-05-21T16:05:21.349Z,101255.00
2023-05-21T16:07:50.240Z,101260.60
2023-05-21T16:10:19.264Z,101259.00
2023-05-21T16:12:47.921Z,101258.20
2023-05-21T16:15:17.138Z,101260.60
2023-05-21T16:17:46.916Z,101265.20
2023-05-21T16:20:16.546Z,101264.00
2023-05-21T16:22:45.231Z,101262.60
2023-05-21T16:25:14.030Z,101262.60
2023-05-21T16:27:42.810Z,101265.80
2023-05-21T16:30:14.237Z,101257.60
2023-05-21T16:32:43.303Z,101253.60
2023-05-21T16:35:12.158Z,101253.80
2023-05-21T16:37:40.935Z,101250.20
2023-05-21T16:40:10.989Z,101249.80
2023-05-21T16:42:40.371Z,101250.40
2023-05-21T16:45:11.048Z,101246.40
2023-05-21T16:47:39.919Z,101249.40
2023-05-21T16:50:09.794Z,101244.80
2023-05-21T16:52:38.392Z,101245.00
2023-05-21T16:55:07.892Z,101246.80
2023-05-21T16:57:36.839Z,101250.80
2023-05-21T17:00:07.999Z,101244.80
2023-05-21T17:02:36.709Z,101246.60
2023-05-21T17:05:06.422Z,101249.60
2023-05-21T17:07:35.008Z,101251.60
2023-05-21T17:10:03.796Z,101249.20
2023-05-21T17:12:33.100Z,101249.20
2023-05-21T17:15:02.509Z,101247.40
2023-05-21T17:17:31.268Z,101251.00
2023-05-21T17:20:01.929Z,101248.40
2023-05-21T17:22:30.742Z,101254.40
2023-05-21T17:24:59.403Z,101255.20
2023-05-21T17:27:28.500Z,101253.00
2023-05-21T17:29:58.031Z,101259.80
2023-05-21T17:32:26.925Z,101262.60
2023-05-21T17:34:55.497Z,101259.40
2023-05-21T17:37:24.096Z,101262.20
2023-05-21T17:39:52.955Z,101260.80
2023-05-21T17:42:21.549Z,101256.80
2023-05-21T17:44:50.332Z,101255.60
2023-05-21T17:47:19.121Z,101256.40
2023-05-21T17:49:47.909Z,101258.20
2023-05-21T17:52:16.694Z,101257.20
2023-05-21T17:54:45.503Z,101257.60
2023-05-21T17:57:16.430Z,101260.60
2023-05-21T17:59:45.935Z,101257.40
2023-05-21T18:02:14.719Z,101256.80
2023-05-21T18:04:43.409Z,101265.00
2023-05-21T18:07:12.193Z,101261.60
2023-05-21T18:09:43.146Z,101262.20
2023-05-21T18:12:12.026Z,101266.60
2023-05-21T18:14:40.816Z,101268.60
2023-05-21T18:17:09.648Z,101268.40
2023-05-21T18:19:38.390Z,101268.60
2023-05-21T18:22:07.082Z,101267.20
2023-05-21T18:24:37.811Z,101273.20
2023-05-21T18:27:06.986Z,101273.60
2023-05-21T18:29:37.077Z,101271.00
2023-05-21T18:32:06.629Z,101270.20
2023-05-21T18:34:35.324Z,101271.20
2023-05-21T18:37:04.116Z,101268.80
2023-05-21T18:39:32.699Z,101267.00
2023-05-21T18:42:12.209Z,101265.80
2023-05-21T18:44:46.069Z,101269.80
2023-05-21T18:47:14.946Z,101264.40
2023-05-21T18:49:43.896Z,101261.60
2023-05-21T18:52:12.721Z,101262.00
2023-05-21T18:54:41.627Z,101263.80
2023-05-21T18:57:10.508Z,101273.00
2023-05-21T18:59:39.502Z,101278.40
2023-05-21T19:02:08.622Z,101280.20
2023-05-21T19:04:37.709Z,101281.00
2023-05-21T19:07:06.612Z,101283.20
2023-05-21T19:09:35.588Z,101288.40
2023-05-21T19:12:05.132Z,101289.20
2023-05-21T19:14:33.773Z,101293.40
2023-05-21T19:17:02.663Z,101290.60
2023-05-21T19:19:31.989Z,101298.40
2023-05-21T19:22:00.963Z,101302.20
2023-05-21T19:24:29.758Z,101300.80
2023-05-21T19:27:00.373Z,101305.00
2023-05-21T19:29:29.399Z,101304.60
2023-05-21T19:31:59.445Z,101308.00
2023-05-21T19:34:28.677Z,101315.20
2023-05-21T19:36:57.388Z,101312.80
2023-05-21T19:39:26.067Z,101311.20
2023-05-21T19:41:54.856Z,101316.20
2023-05-21T19:44:23.545Z,101317.60
2023-05-21T19:46:52.442Z,101320.00
2023-05-21T19:49:21.136Z,101324.60
2023-05-21T19:51:52.272Z,101324.40
2023-05-21T19:54:22.737Z,101318.80
2023-05-21T19:56:51.910Z,101318.60
2023-05-21T19:59:20.592Z,101317.60
2023-05-21T20:01:49.665Z,101316.20
2023-05-21T20:04:18.779Z,101320.20
2023-05-21T20:06:47.562Z,101319.20
2023-05-21T20:09:18.371Z,101317.20
2023-05-21T20:11:48.631Z,101314.40
2023-05-21T20:14:17.519Z,101316.20
2023-05-21T20:16:47.517Z,101314.00
2023-05-21T20:19:16.441Z,101309.80
2023-05-21T20:21:45.484Z,101307.60
2023-05-21T20:24:14.620Z,101306.00
2023-05-21T20:26:45.351Z,101307.00
2023-05-21T20:29:14.035Z,101308.20
2023-05-21T20:31:42.826Z,101304.00
2023-05-21T20:34:12.636Z,101303.80
2023-05-21T20:36:41.642Z,101303.80
2023-05-21T20:39:10.422Z,101298.80
2023-05-21T20:41:39.922Z,101299.20
2023-05-21T20:44:08.513Z,101304.20
2023-05-21T20:46:41.359Z,101305.40
2023-05-21T20:49:10.117Z,101308.20
2023-05-21T20:51:38.879Z,101303.60
2023-05-21T20:54:07.977Z,101302.60
2023-05-21T20:56:42.053Z,101303.20
2023-05-21T20:59:12.381Z,101303.80
2023-05-21T21:01:41.605Z,101306.80
2023-05-21T21:04:10.811Z,101306.20
2023-05-21T21:06:40.632Z,101311.20
2023-05-21T21:09:09.205Z,101311.20
2023-05-21T21:11:38.222Z,101311.40
2023-05-21T21:14:07.495Z,101314.80
2023-05-21T21:16:36.468Z,101317.60
2023-05-21T21:19:05.432Z,101313.40
2023-05-21T21:21:34.381Z,101318.00
2023-05-21T21:24:03.062Z,101315.00
2023-05-21T21:26:31.768Z,101320.40
2023-05-21T21:29:00.443Z,101320.00
2023-05-21T21:31:31.029Z,101325.00
2023-05-21T21:33:59.804Z,101325.00
2023-05-21T21:36:31.675Z,101321.40
2023-05-21T21:39:00.319Z,101323.80
2023-05-21T21:41:29.616Z,101320.80
2023-05-21T21:43:58.603Z,101319.20
2023-05-21T21:46:27.475Z,101323.00
2023-05-21T21:48:56.286Z,101324.00
2023-05-21T21:51:25.175Z,101326.20
2023-05-21T21:53:53.758Z,101327.60
2023-05-21T21:56:22.552Z,101322.60
2023-05-21T21:58:51.139Z,101317.60
2023-05-21T22:01:20.541Z,101316.20
2023-05-21T22:03:49.639Z,101318.20
2023-05-21T22:06:18.326Z,101315.60
2023-05-21T22:08:47.151Z,101316.60
2023-05-21T22:11:15.798Z,101322.40
2023-05-21T22:13:44.708Z,101319.40
2023-05-21T22:16:13.701Z,101321.20
2023-05-21T22:18:42.473Z,101316.40
2023-05-21T22:21:14.491Z,101313.20
2023-05-21T22:23:43.226Z,101317.20
2023-05-21T22:26:11.915Z,101318.80
2023-05-21T22:28:40.701Z,101317.00
2023-05-21T22:31:09.441Z,101315.20
2023-05-21T22:33:38.388Z,101316.80
2023-05-21T22:36:07.799Z,101312.40
2023-05-21T22:38:36.482Z,101312.20
2023-05-21T22:41:05.280Z,101313.00
2023-05-21T22:43:36.287Z,101314.20
2023-05-21T22:46:05.032Z,101317.00
2023-05-21T22:48:34.721Z,101316.00
2023-05-21T22:51:04.779Z,101323.00
2023-05-21T22:53:33.870Z,101322.40
2023-05-21T22:56:02.577Z,101321.40
2023-05-21T22:58:31.399Z,101321.40
2023-05-21T23:01:00.187Z,101323.80
2023-05-21T23:03:28.976Z,101320.80
2023-05-21T23:05:57.678Z,101322.80
2023-05-21T23:08:27.038Z,101320.20
2023-05-21T23:10:55.754Z,101316.60
2023-05-21T23:13:24.397Z,101319.00
2023-05-21T23:15:54.069Z,101319.60
2023-05-21T23:18:22.838Z,101319.80
2023-05-21T23:20:52.386Z,101315.00
2023-05-21T23:23:21.238Z,101310.40
2023-05-21T23:25:52.282Z,101313.40
2023-05-21T23:28:20.874Z,101308.60
2023-05-21T23:30:49.651Z,101309.40
2023-05-21T23:33:18.543Z,101307.40
2023-05-21T23:35:47.261Z,101307.80
2023-05-21T23:38:16.026Z,101307.60
2023-05-21T23:40:44.823Z,101304.20
2023-05-21T23:43:13.800Z,101299.80
2023-05-21T23:45:43.039Z,101300.20
2023-05-21T23:48:12.358Z,101299.40
2023-05-21T23:50:41.355Z,101299.40
2023-05-21T23:53:10.085Z,101303.00
2023-05-21T23:55:38.773Z,101304.00
2023-05-21T23:58:07.457Z,101298.00
